Terminal Aerodrome Forecast
Issued by NWS

Home | Current Version | Previous Version | Text Only | Print | Product List | Glossary On
Versions: 1 2 3 4 5 6 7 8 9 10 11 12 13 14
000
FTUS44 KCRP 010531
TAFLRD
TAF
KLRD 010531Z 0106/0206 13006KT P6SM SCT022
     FM011100 14007KT P6SM BKN012
     FM011600 16008KT P6SM BKN035
     FM012200 14012KT P6SM VCTS SCT050CB
     FM020200 13013KT P6SM SCT040 BKN100=

USA.gov is the U.S. government's official web portal to all federal, state and local government web resources and services.